createdAt,value
2022-10-30T00:01:15.595Z,80.50
2022-10-30T00:03:42.861Z,81.60
2022-10-30T00:06:10.656Z,80.30
2022-10-30T00:08:38.018Z,91.50
2022-10-30T00:11:12.124Z,81.88
2022-10-30T00:13:39.921Z,78.70
2022-10-30T00:16:09.465Z,70.50
2022-10-30T00:18:40.058Z,74.32
2022-10-30T00:21:14.182Z,80.50
2022-10-30T00:23:50.270Z,72.50
2022-10-30T00:26:20.178Z,80.60
2022-10-30T00:28:56.037Z,72.82
2022-10-30T00:31:23.941Z,82.05
2022-10-30T00:33:53.235Z,74.47
2022-10-30T00:36:22.223Z,91.40
2022-10-30T00:38:50.386Z,79.50
2022-10-30T00:41:23.093Z,93.35
2022-10-30T00:43:52.203Z,87.40
2022-10-30T00:46:37.271Z,83.65
2022-10-30T00:49:18.964Z,80.05
2022-10-30T00:51:53.966Z,71.00
2022-10-30T00:54:23.985Z,65.10
2022-10-30T00:56:54.760Z,65.93
2022-10-30T00:59:28.722Z,67.35
2022-10-30T01:01:57.676Z,66.63
2022-10-30T01:04:29.950Z,71.80
2022-10-30T01:07:05.689Z,62.58
2022-10-30T01:09:33.980Z,59.15
2022-10-30T01:12:01.318Z,53.25
2022-10-30T01:14:29.548Z,57.92
2022-10-30T01:17:22.272Z,57.42
2022-10-30T01:20:30.226Z,56.00
2022-10-30T01:23:09.354Z,60.03
2022-10-30T01:26:31.866Z,56.17
2022-10-30T01:29:23.999Z,58.22
2022-10-30T01:32:29.280Z,59.42
2022-10-30T01:35:38.800Z,69.28
2022-10-30T01:38:23.445Z,70.38
2022-10-30T01:40:51.876Z,62.83
2022-10-30T01:43:19.118Z,69.47
2022-10-30T01:46:15.911Z,71.32
2022-10-30T01:48:59.105Z,72.35
2022-10-30T01:51:43.205Z,74.25
2022-10-30T01:54:41.072Z,61.42
2022-10-30T01:57:32.494Z,68.13
2022-10-30T02:00:20.192Z,68.63
2022-10-30T02:02:50.607Z,66.28
2022-10-30T02:05:32.962Z,71.78
2022-10-30T02:08:01.949Z,61.20
2022-10-30T02:10:33.513Z,67.07
2022-10-30T02:13:03.314Z,67.45
2022-10-30T02:15:32.151Z,66.32
2022-10-30T02:18:00.397Z,72.00
2022-10-30T02:22:59.271Z,65.55
2022-10-30T02:25:27.305Z,67.43
2022-10-30T02:27:56.801Z,67.80
2022-10-30T02:30:24.400Z,66.15
2022-10-30T02:32:51.803Z,61.10
2022-10-30T02:35:19.333Z,67.35
2022-10-30T02:37:49.779Z,59.78
2022-10-30T02:40:17.220Z,61.45
2022-10-30T02:42:44.470Z,66.97
2022-10-30T02:45:11.921Z,65.32
2022-10-30T02:47:39.216Z,76.82
2022-10-30T02:50:07.903Z,71.80
2022-10-30T02:52:43.596Z,67.88
2022-10-30T02:55:10.846Z,67.03
2022-10-30T02:57:38.314Z,63.15
2022-10-30T03:00:06.654Z,66.80
2022-10-30T03:02:34.049Z,62.95
2022-10-30T03:05:01.285Z,58.45
2022-10-30T03:07:28.745Z,59.85
2022-10-30T03:09:56.049Z,63.25
2022-10-30T03:12:25.885Z,51.72
2022-10-30T03:14:53.178Z,52.90
2022-10-30T03:17:21.087Z,45.25
2022-10-30T03:19:48.372Z,47.13
2022-10-30T03:22:15.641Z,47.53
2022-10-30T03:24:43.014Z,57.97
2022-10-30T03:27:11.563Z,51.00
2022-10-30T03:32:12.841Z,43.00
2022-10-30T03:34:40.113Z,52.03
2022-10-30T03:37:07.544Z,47.10
2022-10-30T03:39:34.882Z,47.35
2022-10-30T03:42:02.144Z,44.30
2022-10-30T03:44:29.492Z,41.85
2022-10-30T03:46:56.792Z,46.97
2022-10-30T03:49:24.062Z,57.95
2022-10-30T03:51:51.266Z,52.45
2022-10-30T03:54:18.727Z,50.53
2022-10-30T03:56:46.291Z,44.67
2022-10-30T03:59:16.154Z,44.55
2022-10-30T04:01:43.605Z,41.63
2022-10-30T04:04:11.043Z,39.90
2022-10-30T04:06:38.264Z,44.08
2022-10-30T04:09:07.948Z,46.75
2022-10-30T04:11:35.367Z,49.03
2022-10-30T04:14:02.671Z,47.85
2022-10-30T04:16:29.949Z,46.17
2022-10-30T04:18:57.178Z,48.92
2022-10-30T04:21:24.464Z,43.00
2022-10-30T04:23:52.979Z,72.88
2022-10-30T04:26:20.767Z,61.70
2022-10-30T04:28:48.527Z,80.60
2022-10-30T04:31:15.938Z,105.57
2022-10-30T04:33:43.310Z,88.65
2022-10-30T04:36:10.742Z,90.68
2022-10-30T04:38:38.161Z,116.88
2022-10-30T04:41:05.521Z,155.85
2022-10-30T04:43:32.860Z,134.90
2022-10-30T04:46:03.946Z,129.95
2022-10-30T04:48:33.649Z,130.23
2022-10-30T04:51:00.906Z,123.97
2022-10-30T04:53:34.571Z,129.93
2022-10-30T04:56:08.073Z,144.65
2022-10-30T04:58:36.644Z,149.52
2022-10-30T05:01:07.637Z,109.28
2022-10-30T05:03:35.553Z,123.68
2022-10-30T05:06:08.187Z,95.13
2022-10-30T05:08:35.430Z,99.13
2022-10-30T05:11:05.708Z,115.20
2022-10-30T05:13:33.398Z,119.65
2022-10-30T05:16:01.700Z,111.47
2022-10-30T05:18:28.927Z,114.03
2022-10-30T05:20:56.207Z,102.90
2022-10-30T05:23:23.817Z,94.95
2022-10-30T05:25:51.344Z,105.13
2022-10-30T05:28:18.619Z,108.72
2022-10-30T05:30:46.199Z,83.38
2022-10-30T05:33:15.953Z,92.03
2022-10-30T05:35:44.799Z,94.25
2022-10-30T05:38:13.188Z,97.78
2022-10-30T05:40:41.707Z,106.60
2022-10-30T05:43:10.447Z,102.18
2022-10-30T05:45:37.720Z,87.75
2022-10-30T05:48:09.144Z,95.93
2022-10-30T05:50:36.880Z,83.95
2022-10-30T05:53:05.852Z,84.80
2022-10-30T05:55:34.905Z,86.43
2022-10-30T05:58:05.371Z,89.50
2022-10-30T06:00:36.948Z,83.22
2022-10-30T06:03:07.751Z,88.20
2022-10-30T06:05:37.916Z,71.78
2022-10-30T06:08:08.403Z,71.82
2022-10-30T06:10:36.881Z,67.70
2022-10-30T06:15:34.378Z,78.30
2022-10-30T06:18:02.351Z,77.35
2022-10-30T06:20:32.104Z,78.57
2022-10-30T06:25:41.419Z,68.45
2022-10-30T06:28:11.754Z,73.45
2022-10-30T06:30:39.402Z,99.68
2022-10-30T06:33:07.566Z,72.13
2022-10-30T06:35:35.443Z,70.57
2022-10-30T06:38:02.785Z,63.90
2022-10-30T06:40:30.838Z,63.03
2022-10-30T06:42:58.712Z,66.60
2022-10-30T06:45:26.530Z,66.90
2022-10-30T06:47:54.087Z,63.72
2022-10-30T06:50:22.262Z,61.10
2022-10-30T06:52:49.639Z,63.47
2022-10-30T06:55:17.464Z,70.53
2022-10-30T06:57:44.799Z,66.82
2022-10-30T07:00:13.720Z,72.72
2022-10-30T07:02:41.320Z,73.15
2022-10-30T07:05:08.907Z,61.97
2022-10-30T07:07:36.250Z,64.03
2022-10-30T07:10:04.846Z,64.90
2022-10-30T07:12:33.457Z,52.20
2022-10-30T07:15:02.877Z,63.70
2022-10-30T07:17:30.212Z,63.30
2022-10-30T07:19:57.575Z,67.32
2022-10-30T07:22:24.850Z,57.03
2022-10-30T07:24:52.212Z,66.70
2022-10-30T07:27:19.527Z,63.47
2022-10-30T07:29:47.902Z,56.92
2022-10-30T07:34:43.643Z,55.78
2022-10-30T07:39:37.972Z,59.75
2022-10-30T07:42:05.815Z,58.53
2022-10-30T07:44:33.046Z,60.13
2022-10-30T07:47:00.200Z,61.70
2022-10-30T07:49:29.884Z,62.50
2022-10-30T07:51:57.103Z,63.38
2022-10-30T07:54:24.527Z,59.17
2022-10-30T07:56:52.129Z,57.58
2022-10-30T07:59:19.401Z,64.23
2022-10-30T08:01:46.713Z,60.90
2022-10-30T08:04:14.931Z,57.65
2022-10-30T08:06:42.553Z,51.80
2022-10-30T08:09:10.043Z,53.55
2022-10-30T08:11:37.383Z,48.70
2022-10-30T08:14:05.614Z,47.88
2022-10-30T08:16:34.032Z,49.78
2022-10-30T08:21:29.016Z,52.00
2022-10-30T08:23:56.619Z,49.13
2022-10-30T08:26:24.094Z,53.13
2022-10-30T08:28:51.386Z,53.42
2022-10-30T08:31:21.045Z,53.67
2022-10-30T08:33:48.552Z,54.53
2022-10-30T08:36:16.141Z,54.72
2022-10-30T08:38:45.966Z,52.97
2022-10-30T08:41:13.183Z,57.15
2022-10-30T08:43:40.510Z,57.45
2022-10-30T08:46:07.828Z,56.83
2022-10-30T08:48:35.187Z,50.25
2022-10-30T08:51:02.554Z,52.10
2022-10-30T08:53:29.919Z,51.08
2022-10-30T08:55:57.252Z,44.90
2022-10-30T08:58:24.861Z,47.65
2022-10-30T09:00:55.905Z,53.47
2022-10-30T09:03:25.943Z,49.80
2022-10-30T09:05:53.437Z,57.72
2022-10-30T09:08:20.871Z,51.97
2022-10-30T09:10:48.065Z,54.58
2022-10-30T09:13:15.371Z,53.78
2022-10-30T09:15:42.942Z,59.47
2022-10-30T09:18:14.486Z,52.60
2022-10-30T09:20:41.788Z,57.90
2022-10-30T09:23:09.548Z,64.25
2022-10-30T09:25:37.010Z,61.80
2022-10-30T09:28:04.411Z,60.35
2022-10-30T09:30:31.662Z,63.15
2022-10-30T09:33:02.878Z,59.30
2022-10-30T09:35:32.629Z,66.28
2022-10-30T09:38:00.187Z,62.88
2022-10-30T09:40:46.437Z,66.13
2022-10-30T09:43:49.881Z,66.00
2022-10-30T09:46:17.100Z,63.30
2022-10-30T09:49:24.791Z,62.72
2022-10-30T09:52:13.718Z,62.20
2022-10-30T09:54:59.454Z,58.10
2022-10-30T09:57:57.736Z,61.40
2022-10-30T10:03:14.201Z,60.67
2022-10-30T10:05:55.020Z,59.78
2022-10-30T10:08:42.233Z,61.67
2022-10-30T10:11:27.047Z,67.38
2022-10-30T10:14:08.609Z,67.65
2022-10-30T10:16:42.128Z,64.90
2022-10-30T10:19:31.276Z,65.95
2022-10-30T10:22:02.593Z,65.45
2022-10-30T10:24:37.991Z,64.13
2022-10-30T10:27:07.954Z,62.03
2022-10-30T10:30:05.256Z,66.40
2022-10-30T10:32:51.346Z,72.03
2022-10-30T10:36:05.116Z,68.75
2022-10-30T10:38:50.490Z,68.15
2022-10-30T10:42:05.709Z,75.30
2022-10-30T10:44:44.677Z,66.85
2022-10-30T10:47:39.246Z,66.10
2022-10-30T10:50:58.718Z,67.05
2022-10-30T10:53:55.011Z,65.00
2022-10-30T10:56:33.987Z,66.63
2022-10-30T10:59:12.812Z,67.90
2022-10-30T11:01:45.238Z,70.35
2022-10-30T11:04:37.151Z,70.10
2022-10-30T11:07:30.453Z,66.38
2022-10-30T11:09:59.108Z,67.05
2022-10-30T11:12:36.458Z,64.85
2022-10-30T11:15:23.040Z,61.80
2022-10-30T11:21:11.578Z,60.63
2022-10-30T11:23:49.814Z,64.72
2022-10-30T11:26:35.957Z,60.47
2022-10-30T11:29:19.825Z,58.45
2022-10-30T11:31:47.291Z,58.63
2022-10-30T11:34:18.951Z,61.38
2022-10-30T11:36:51.288Z,58.15
2022-10-30T11:39:28.987Z,60.08
2022-10-30T11:42:06.750Z,54.30
2022-10-30T11:44:48.201Z,50.25
2022-10-30T11:47:19.077Z,57.03
2022-10-30T11:49:53.087Z,54.92
2022-10-30T11:52:25.389Z,57.50
2022-10-30T11:55:02.768Z,57.47
2022-10-30T11:57:46.393Z,54.08
2022-10-30T12:00:22.127Z,58.08
2022-10-30T12:02:53.052Z,55.58
2022-10-30T12:05:29.178Z,61.50
2022-10-30T12:08:18.825Z,56.60
2022-10-30T12:10:50.327Z,56.60
2022-10-30T12:13:21.344Z,53.88
2022-10-30T12:16:05.994Z,55.13
2022-10-30T12:18:34.418Z,56.25
2022-10-30T12:23:33.361Z,61.17
2022-10-30T12:26:12.912Z,59.17
2022-10-30T12:29:00.026Z,59.08
2022-10-30T12:31:49.396Z,58.15
2022-10-30T12:34:48.341Z,61.03
2022-10-30T12:37:26.699Z,53.55
2022-10-30T12:40:16.199Z,58.40
2022-10-30T12:43:05.963Z,61.25
2022-10-30T12:45:43.517Z,57.65
2022-10-30T12:48:45.120Z,61.40
2022-10-30T12:51:31.949Z,60.17
2022-10-30T12:54:38.579Z,68.00
2022-10-30T12:57:17.944Z,70.93
2022-10-30T13:00:03.966Z,63.85
2022-10-30T13:02:59.796Z,67.55
2022-10-30T13:08:28.892Z,71.20
2022-10-30T13:11:28.854Z,73.55
2022-10-30T13:13:59.597Z,72.78
2022-10-30T13:16:30.961Z,72.53
2022-10-30T13:19:02.061Z,68.25
2022-10-30T13:21:38.268Z,69.57
2022-10-30T13:24:40.673Z,68.70
2022-10-30T13:27:21.374Z,74.07
2022-10-30T13:30:04.897Z,70.72
2022-10-30T13:32:43.385Z,66.35
2022-10-30T13:38:33.219Z,70.15
2022-10-30T13:41:41.240Z,72.78
2022-10-30T13:47:20.902Z,69.25
2022-10-30T13:50:18.011Z,70.80
2022-10-30T13:52:53.632Z,72.30
2022-10-30T13:55:34.489Z,65.70
2022-10-30T13:58:10.688Z,75.70
2022-10-30T14:01:02.068Z,69.85
2022-10-30T14:04:07.462Z,71.40
2022-10-30T14:07:05.438Z,77.22
2022-10-30T14:10:04.643Z,73.82
2022-10-30T14:13:07.886Z,77.10
2022-10-30T14:15:49.003Z,75.20
2022-10-30T14:18:16.157Z,81.15
2022-10-30T14:20:55.753Z,70.82
2022-10-30T14:23:37.345Z,83.55
2022-10-30T14:26:04.827Z,89.15
2022-10-30T14:28:44.809Z,83.63
2022-10-30T14:31:37.262Z,90.03
2022-10-30T14:34:04.878Z,94.18
2022-10-30T14:36:38.441Z,98.40
2022-10-30T14:39:14.650Z,104.63
2022-10-30T14:42:12.673Z,104.95
2022-10-30T14:44:58.071Z,109.40
2022-10-30T14:47:46.613Z,104.03
2022-10-30T14:50:58.178Z,105.43
2022-10-30T14:54:02.429Z,108.70
2022-10-30T14:56:49.202Z,103.32
2022-10-30T14:59:16.938Z,108.97
2022-10-30T15:01:54.276Z,102.00
2022-10-30T15:04:54.799Z,110.28
2022-10-30T15:07:58.017Z,114.65
2022-10-30T15:10:32.746Z,116.25
2022-10-30T15:13:21.988Z,123.22
2022-10-30T15:16:00.563Z,114.13
2022-10-30T15:18:30.795Z,114.28
2022-10-30T15:21:06.310Z,123.18
2022-10-30T15:23:37.074Z,120.40
2022-10-30T15:26:19.757Z,117.03
2022-10-30T15:28:52.623Z,119.95
2022-10-30T15:31:29.152Z,134.05
2022-10-30T15:34:00.084Z,117.78
2022-10-30T15:36:35.368Z,105.40
2022-10-30T15:39:21.673Z,114.00
2022-10-30T15:42:09.738Z,102.60
2022-10-30T15:44:45.340Z,116.93
2022-10-30T15:47:21.018Z,110.00
2022-10-30T15:49:55.439Z,94.80
2022-10-30T15:52:28.649Z,93.38
2022-10-30T15:55:05.569Z,98.55
2022-10-30T15:58:03.438Z,91.40
2022-10-30T16:00:40.595Z,91.75
2022-10-30T16:03:18.121Z,97.03
2022-10-30T16:05:45.953Z,94.90
2022-10-30T16:08:24.686Z,107.20
2022-10-30T16:10:56.137Z,104.50
2022-10-30T16:13:30.832Z,108.32
2022-10-30T16:16:00.459Z,102.15
2022-10-30T16:18:32.396Z,113.88
2022-10-30T16:21:09.100Z,108.72
2022-10-30T16:23:52.950Z,116.82
2022-10-30T16:26:36.999Z,120.70
2022-10-30T16:29:25.987Z,129.20
2022-10-30T16:31:54.248Z,122.47
2022-10-30T16:34:35.213Z,111.63
2022-10-30T16:37:06.934Z,106.57
2022-10-30T16:39:37.146Z,118.68
2022-10-30T16:42:05.796Z,124.32
2022-10-30T16:44:35.631Z,128.23
2022-10-30T16:47:25.546Z,128.20
2022-10-30T16:49:58.125Z,132.50
2022-10-30T16:52:33.025Z,144.30
2022-10-30T16:55:06.538Z,146.48
2022-10-30T16:57:46.055Z,140.27
2022-10-30T17:00:30.540Z,147.18
2022-10-30T17:03:10.912Z,158.40
2022-10-30T17:05:41.379Z,146.13
2022-10-30T17:08:36.548Z,155.55
2022-10-30T17:11:07.571Z,148.15
2022-10-30T17:13:44.032Z,151.57
2022-10-30T17:17:00.311Z,140.98
2022-10-30T17:19:30.634Z,148.05
2022-10-30T17:22:04.381Z,152.02
2022-10-30T17:24:35.690Z,155.82
2022-10-30T17:27:29.701Z,156.98
2022-10-30T17:29:58.389Z,144.88
2022-10-30T17:32:29.387Z,151.85
2022-10-30T17:35:13.053Z,154.43
2022-10-30T17:37:40.599Z,149.98
2022-10-30T17:40:08.895Z,147.48
2022-10-30T17:42:36.373Z,147.57
2022-10-30T17:45:11.054Z,149.07
2022-10-30T17:47:41.541Z,158.73
2022-10-30T17:50:09.549Z,156.45
2022-10-30T17:52:36.945Z,153.25
2022-10-30T17:55:23.276Z,151.43
2022-10-30T17:57:52.030Z,147.63
2022-10-30T18:00:19.882Z,206.07
2022-10-30T18:02:47.339Z,153.32
2022-10-30T18:07:46.519Z,140.45
2022-10-30T18:10:14.568Z,152.27
2022-10-30T18:12:41.938Z,160.20
2022-10-30T18:15:33.150Z,167.73
2022-10-30T18:18:01.268Z,164.00
2022-10-30T18:20:29.651Z,159.75
2022-10-30T18:22:57.864Z,156.88
2022-10-30T18:25:32.146Z,152.88
2022-10-30T18:27:59.502Z,159.60
2022-10-30T18:30:29.203Z,162.65
2022-10-30T18:32:57.298Z,158.48
2022-10-30T18:35:51.507Z,155.20
2022-10-30T18:38:19.196Z,149.73
2022-10-30T18:40:48.018Z,151.70
2022-10-30T18:43:15.686Z,166.63
2022-10-30T18:45:44.638Z,150.88
2022-10-30T18:48:13.448Z,167.45
2022-10-30T18:50:40.806Z,177.50
2022-10-30T18:53:18.048Z,187.85
2022-10-30T18:55:45.709Z,167.13
2022-10-30T18:58:12.951Z,181.13
2022-10-30T19:01:10.543Z,223.35
2022-10-30T19:03:30.944Z,200.18
2022-10-30T19:05:58.377Z,171.90
2022-10-30T19:08:25.649Z,171.93
2022-10-30T19:10:57.040Z,183.32
2022-10-30T19:13:24.831Z,183.13
2022-10-30T19:16:00.289Z,168.82
2022-10-30T19:18:28.925Z,215.82
2022-10-30T19:21:05.770Z,174.07
2022-10-30T19:23:34.542Z,174.95
2022-10-30T19:26:01.872Z,201.23
2022-10-30T19:28:30.903Z,206.63
2022-10-30T19:30:58.246Z,229.90
2022-10-30T19:33:25.812Z,208.15
2022-10-30T19:35:59.177Z,186.43
2022-10-30T19:38:27.436Z,203.45
2022-10-30T19:40:54.909Z,179.63
2022-10-30T19:43:22.681Z,241.07
2022-10-30T19:45:55.629Z,201.73
2022-10-30T19:48:55.365Z,179.98
2022-10-30T19:51:12.753Z,167.48
2022-10-30T19:53:41.342Z,183.93
2022-10-30T19:56:16.568Z,184.48
2022-10-30T19:58:43.877Z,226.77
2022-10-30T20:01:13.650Z,187.32
2022-10-30T20:03:41.430Z,196.75
2022-10-30T20:06:15.938Z,210.90
2022-10-30T20:08:44.299Z,167.63
2022-10-30T20:11:11.526Z,167.00
2022-10-30T20:13:38.909Z,159.10
2022-10-30T20:16:10.864Z,148.85
2022-10-30T20:18:38.121Z,150.27
2022-10-30T20:21:13.583Z,139.13
2022-10-30T20:23:41.236Z,137.23
2022-10-30T20:26:26.677Z,134.45
2022-10-30T20:28:54.722Z,125.25
2022-10-30T20:31:22.463Z,120.03
2022-10-30T20:33:49.693Z,116.45
2022-10-30T20:36:17.203Z,117.25
2022-10-30T20:38:44.945Z,103.90
2022-10-30T20:41:26.585Z,99.93
2022-10-30T20:43:53.834Z,114.75
2022-10-30T20:46:21.723Z,120.95
2022-10-30T20:48:49.515Z,121.57
2022-10-30T20:51:17.084Z,139.18
2022-10-30T20:53:44.741Z,107.67
2022-10-30T20:56:12.001Z,98.47
2022-10-30T20:58:40.166Z,101.32
2022-10-30T21:01:08.118Z,97.53
2022-10-30T21:03:35.417Z,94.05
2022-10-30T21:06:04.237Z,87.00
2022-10-30T21:08:32.139Z,87.22
2022-10-30T21:11:06.090Z,103.70
2022-10-30T21:13:35.153Z,107.10
2022-10-30T21:16:10.555Z,104.68
2022-10-30T21:18:37.808Z,102.10
2022-10-30T21:21:08.731Z,90.72
2022-10-30T21:23:36.070Z,97.85
2022-10-30T21:26:07.546Z,98.05
2022-10-30T21:28:34.941Z,94.82
2022-10-30T21:31:04.872Z,87.38
2022-10-30T21:33:34.357Z,80.63
2022-10-30T21:36:17.272Z,86.65
2022-10-30T21:38:44.908Z,82.32
2022-10-30T21:41:19.465Z,74.40
2022-10-30T21:43:54.095Z,72.47
2022-10-30T21:46:23.707Z,60.92
2022-10-30T21:48:51.910Z,65.60
2022-10-30T21:51:25.556Z,61.08
2022-10-30T21:53:55.309Z,60.67
2022-10-30T21:56:30.759Z,59.40
2022-10-30T21:59:00.473Z,56.10
2022-10-30T22:01:31.890Z,60.17
2022-10-30T22:04:01.490Z,61.75
2022-10-30T22:06:30.201Z,53.95
2022-10-30T22:08:58.900Z,57.08
2022-10-30T22:11:28.781Z,50.60
2022-10-30T22:14:03.153Z,56.20
2022-10-30T22:16:34.139Z,50.75
2022-10-30T22:19:03.175Z,55.53
2022-10-30T22:21:30.924Z,43.25
2022-10-30T22:24:03.150Z,49.17
2022-10-30T22:26:30.733Z,41.47
2022-10-30T22:29:00.865Z,41.65
2022-10-30T22:31:30.218Z,46.53
2022-10-30T22:34:01.633Z,38.15
2022-10-30T22:36:32.419Z,36.83
2022-10-30T22:39:03.461Z,39.45
2022-10-30T22:41:34.780Z,40.53
2022-10-30T22:44:10.281Z,45.42
2022-10-30T22:46:38.282Z,37.38
2022-10-30T22:49:06.987Z,38.22
2022-10-30T22:51:38.634Z,43.58
2022-10-30T22:54:09.667Z,41.95
2022-10-30T22:56:39.374Z,40.15
2022-10-30T22:59:11.552Z,44.72
2022-10-30T23:01:40.138Z,38.85
2022-10-30T23:04:11.085Z,41.38
2022-10-30T23:06:38.602Z,34.42
2022-10-30T23:09:16.840Z,39.75
2022-10-30T23:11:44.380Z,34.25
2022-10-30T23:14:13.088Z,36.20
2022-10-30T23:16:42.183Z,34.95
2022-10-30T23:19:10.982Z,34.90
2022-10-30T23:21:38.357Z,38.08
2022-10-30T23:24:06.345Z,32.50
2022-10-30T23:26:36.445Z,40.90
2022-10-30T23:29:05.258Z,34.05
2022-10-30T23:31:40.505Z,31.23
2022-10-30T23:34:15.684Z,28.58
2022-10-30T23:36:43.940Z,36.20
2022-10-30T23:39:17.352Z,36.25
2022-10-30T23:41:45.031Z,35.00
2022-10-30T23:44:15.669Z,35.83
2022-10-30T23:46:43.108Z,30.15
2022-10-30T23:49:10.466Z,33.47
2022-10-30T23:51:37.843Z,41.03
2022-10-30T23:54:05.432Z,40.28
2022-10-30T23:56:34.111Z,53.23
2022-10-30T23:59:01.813Z,53.58
